Time;durP1;ratioP1;P1;durP2;ratioP2;P2;SDS_P1;SDS_P2;PMS_P1;PMS_P2;Temp;Humidity;BMP_temperature;BMP_pressure;BME280_temperature;BME280_humidity;BME280_pressure;Samples;Min_cycle;Max_cycle;Signal;HPM_P1;HPM_P2
2022/10/07 00:00:51;;;;;;;12.38;10.20;;;13.50;99.90;;;;;;5073409;28;20384;-54
2022/10/07 00:03:19;;;;;;;12.00;10.68;;;13.40;99.90;;;;;;5066926;28;20460;-58
2022/10/07 01:12:11;;;;;;;11.90;9.05;;;13.20;99.90;;;;;;5039362;28;20078;-56
2022/10/07 01:15:18;;;;;;;10.13;8.15;;;13.60;99.90;;;;;;5050213;28;20032;-53
2022/10/07 01:17:52;;;;;;;19.42;11.85;;;13.80;99.90;;;;;;5071935;28;20458;-51
2022/10/07 01:20:33;;;;;;;36.53;18.00;;;14.00;99.90;;;;;;5071761;28;20020;-55
2022/10/07 01:23:19;;;;;;;37.65;19.25;;;14.20;99.90;;;;;;5066195;28;20028;-56
2022/10/07 01:25:45;;;;;;;35.08;18.30;;;14.40;99.90;;;;;;5071541;28;20173;-58
2022/10/07 01:28:43;;;;;;;27.33;15.60;;;14.40;99.90;;;;;;5046337;28;20432;-53
2022/10/07 01:31:15;;;;;;;19.73;12.55;;;14.50;99.90;;;;;;5072201;28;20067;-54
2022/10/07 01:33:42;;;;;;;11.80;9.50;;;14.50;99.90;;;;;;5069818;28;20037;-62
2022/10/07 01:36:20;;;;;;;21.40;13.68;;;14.40;99.90;;;;;;5072882;28;20032;-56
2022/10/07 01:39:01;;;;;;;15.93;11.40;;;14.50;99.90;;;;;;5069893;28;20492;-53
2022/10/07 01:41:29;;;;;;;16.60;12.30;;;14.50;99.90;;;;;;5069373;28;20044;-55
2022/10/07 01:43:56;;;;;;;15.75;10.68;;;14.60;99.90;;;;;;5073079;28;20078;-50
2022/10/07 01:46:25;;;;;;;17.05;12.65;;;14.60;99.90;;;;;;5072448;28;20044;-53
2022/10/07 01:48:52;;;;;;;20.73;12.27;;;14.60;99.90;;;;;;5072416;28;20028;-57
2022/10/07 01:51:22;;;;;;;14.80;10.27;;;14.60;99.90;;;;;;5072207;28;20078;-57
2022/10/07 01:54:23;;;;;;;13.55;10.60;;;14.40;99.90;;;;;;5071993;28;20529;-55
2022/10/07 01:56:51;;;;;;;11.27;9.02;;;14.50;99.90;;;;;;5071797;28;20107;-57
2022/10/07 01:59:44;;;;;;;8.90;7.75;;;14.50;99.90;;;;;;5072835;28;20349;-52
2022/10/07 02:02:16;;;;;;;10.10;7.93;;;14.50;99.90;;;;;;5053421;28;20044;-54
2022/10/07 02:04:58;;;;;;;11.32;8.60;;;14.20;99.90;;;;;;5071349;28;20081;-55
2022/10/07 02:08:08;;;;;;;12.13;8.90;;;13.70;99.90;;;;;;5069353;28;20040;-61
2022/10/07 02:11:00;;;;;;;11.07;8.70;;;13.80;99.90;;;;;;5010794;28;20494;-58
2022/10/07 02:13:40;;;;;;;9.68;8.23;;;13.80;99.90;;;;;;4996119;28;20888;-56
2022/10/07 02:16:11;;;;;;;9.52;8.63;;;13.80;99.90;;;;;;5007366;28;20034;-53
2022/10/07 02:18:40;;;;;;;9.48;8.57;;;13.80;99.90;;;;;;4977656;28;20041;-61
2022/10/07 02:21:08;;;;;;;12.73;8.77;;;13.80;99.90;;;;;;4977715;28;20030;-57
2022/10/07 02:23:37;;;;;;;13.40;8.73;;;13.70;99.90;;;;;;5009393;28;20033;-56
2022/10/07 02:26:05;;;;;;;13.20;9.52;;;13.60;99.90;;;;;;4974883;28;20069;-57
2022/10/07 02:28:34;;;;;;;10.27;8.82;;;13.40;99.90;;;;;;5009275;28;20130;-55
2022/10/07 02:31:02;;;;;;;12.65;9.68;;;13.30;99.90;;;;;;5009049;28;20038;-58
2022/10/07 02:33:29;;;;;;;11.77;8.77;;;13.40;99.90;;;;;;5009824;28;20125;-58
2022/10/07 02:35:59;;;;;;;11.10;9.05;;;13.50;99.90;;;;;;5010286;28;20066;-56
2022/10/07 02:38:25;;;;;;;10.80;8.95;;;13.70;99.90;;;;;;5005832;28;20041;-54
2022/10/07 02:41:00;;;;;;;14.63;10.32;;;13.80;99.90;;;;;;5008289;28;20399;-58
2022/10/07 02:43:46;;;;;;;12.95;10.07;;;14.00;99.90;;;;;;5010648;28;20371;-53
2022/10/07 02:46:23;;;;;;;18.55;9.80;;;14.10;99.90;;;;;;5027724;28;20063;-53
2022/10/07 02:49:17;;;;;;;25.50;17.63;;;14.20;99.90;;;;;;5074818;28;20024;-55
2022/10/07 02:52:13;;;;;;;15.93;11.63;;;14.30;99.90;;;;;;5070802;28;20036;-57
2022/10/07 02:54:56;;;;;;;13.93;9.15;;;14.30;99.90;;;;;;5071498;28;20046;-53
2022/10/07 02:57:25;;;;;;;11.02;8.95;;;14.40;99.90;;;;;;5071473;28;20438;-54
2022/10/07 02:59:53;;;;;;;12.00;9.18;;;14.40;99.90;;;;;;5073764;28;20388;-54
2022/10/07 03:02:49;;;;;;;13.02;9.68;;;14.40;99.90;;;;;;5075880;28;20086;-52
2022/10/07 03:05:20;;;;;;;12.55;9.23;;;14.40;99.90;;;;;;5035671;28;20032;-58
2022/10/07 03:07:47;;;;;;;12.93;9.70;;;14.40;99.90;;;;;;5074723;28;20404;-58
2022/10/07 03:10:14;;;;;;;15.25;9.30;;;14.40;99.90;;;;;;5074579;28;20116;-56
2022/10/07 03:12:41;;;;;;;11.23;8.02;;;14.50;99.90;;;;;;5073355;28;20044;-53
2022/10/07 03:15:09;;;;;;;9.80;8.20;;;14.60;99.90;;;;;;5072631;28;20037;-57
2022/10/07 03:17:35;;;;;;;10.32;8.45;;;14.50;99.90;;;;;;5074238;28;20424;-57
2022/10/07 03:20:01;;;;;;;9.40;8.50;;;14.50;99.90;;;;;;5075498;28;20104;-59
2022/10/07 03:22:28;;;;;;;9.40;8.52;;;14.50;99.90;;;;;;5075750;28;20078;-56
2022/10/07 03:24:54;;;;;;;11.15;9.18;;;14.50;99.90;;;;;;5074697;28;20059;-50
2022/10/07 03:27:20;;;;;;;11.35;8.88;;;14.50;99.90;;;;;;5074166;28;20028;-55
2022/10/07 03:29:47;;;;;;;10.05;8.88;;;14.50;99.90;;;;;;5075677;28;20025;-52
2022/10/07 03:32:13;;;;;;;9.50;8.50;;;14.40;99.90;;;;;;5075358;28;20036;-58
2022/10/07 03:34:39;;;;;;;12.45;10.77;;;14.50;99.90;;;;;;5072958;28;20028;-57
2022/10/07 03:37:05;;;;;;;22.23;13.55;;;14.50;99.90;;;;;;5075501;28;20051;-54
2022/10/07 03:39:31;;;;;;;35.47;22.63;;;14.60;99.90;;;;;;5073697;28;20039;-57
2022/10/07 03:41:57;;;;;;;32.10;19.70;;;14.60;99.90;;;;;;5075046;28;20498;-52
2022/10/07 03:44:23;;;;;;;24.65;18.02;;;14.60;99.90;;;;;;5074780;28;20020;-57
2022/10/07 03:46:50;;;;;;;24.13;17.70;;;14.60;99.90;;;;;;5074612;28;20107;-59
2022/10/07 03:49:16;;;;;;;20.48;14.73;;;14.60;99.90;;;;;;5073624;28;20028;-61
2022/10/07 03:51:41;;;;;;;20.00;12.27;;;14.50;99.90;;;;;;5054336;28;20029;-57
2022/10/07 03:54:07;;;;;;;16.42;12.65;;;14.30;99.90;;;;;;5074883;28;20090;-61
2022/10/07 03:56:33;;;;;;;14.43;11.70;;;14.40;99.90;;;;;;5075355;28;20091;-52
2022/10/07 03:58:59;;;;;;;19.10;12.05;;;14.50;99.90;;;;;;5053389;28;20403;-53
2022/10/07 04:01:25;;;;;;;16.17;11.70;;;14.60;99.90;;;;;;5074511;28;20028;-57
2022/10/07 04:03:51;;;;;;;19.73;12.27;;;14.60;99.90;;;;;;5021921;28;20036;-52
2022/10/07 04:06:17;;;;;;;20.67;13.65;;;14.60;99.90;;;;;;5073681;28;20043;-57
2022/10/07 04:08:43;;;;;;;20.52;14.77;;;14.70;99.90;;;;;;5073264;28;20186;-55
2022/10/07 04:11:10;;;;;;;19.52;13.13;;;14.70;99.90;;;;;;5075349;28;20021;-60
2022/10/07 04:13:35;;;;;;;15.98;11.65;;;14.70;99.90;;;;;;5072638;28;20044;-56
2022/10/07 04:16:06;;;;;;;17.55;12.13;;;14.70;99.90;;;;;;5074613;28;20036;-54
2022/10/07 04:18:32;;;;;;;14.00;11.60;;;14.70;99.90;;;;;;5074314;28;20037;-51
2022/10/07 04:20:59;;;;;;;16.42;11.13;;;14.70;99.90;;;;;;5070340;28;20074;-58
2022/10/07 04:23:25;;;;;;;17.25;12.82;;;14.70;99.90;;;;;;5073245;28;20033;-59
2022/10/07 04:25:51;;;;;;;11.82;10.02;;;14.70;99.90;;;;;;5072017;28;20087;-56
2022/10/07 04:28:19;;;;;;;10.90;9.65;;;14.70;99.90;;;;;;5074614;28;20028;-55
2022/10/07 04:30:50;;;;;;;10.23;9.13;;;14.60;99.90;;;;;;5074594;28;20085;-53
2022/10/07 04:33:17;;;;;;;14.45;9.45;;;14.60;99.90;;;;;;5073989;28;20041;-56
2022/10/07 04:35:43;;;;;;;17.48;12.35;;;14.60;99.90;;;;;;5072805;28;20035;-54
2022/10/07 04:38:10;;;;;;;33.83;22.27;;;14.60;99.90;;;;;;5069991;28;20037;-57
2022/10/07 04:40:41;;;;;;;37.75;27.52;;;14.70;99.90;;;;;;5049106;28;20090;-59
2022/10/07 04:43:18;;;;;;;23.90;15.40;;;14.60;99.90;;;;;;5071310;28;20027;-56
2022/10/07 04:45:48;;;;;;;16.58;11.68;;;14.60;99.90;;;;;;5072818;28;20038;-54
2022/10/07 04:48:16;;;;;;;10.95;9.55;;;14.60;99.90;;;;;;5054575;28;20036;-55
2022/10/07 04:50:42;;;;;;;15.32;9.52;;;14.50;99.90;;;;;;5072740;28;20549;-58
2022/10/07 04:53:10;;;;;;;14.20;10.45;;;14.50;99.90;;;;;;5054238;28;20072;-55
2022/10/07 04:55:41;;;;;;;16.73;9.38;;;14.50;99.90;;;;;;5074162;28;20045;-58
2022/10/07 04:58:07;;;;;;;14.35;11.25;;;14.50;99.90;;;;;;5072972;28;20044;-55
2022/10/07 05:00:34;;;;;;;13.23;10.30;;;14.40;99.90;;;;;;5072419;28;20361;-59
2022/10/07 05:03:00;;;;;;;18.58;12.35;;;14.50;99.90;;;;;;5073091;28;20037;-53
2022/10/07 05:05:26;;;;;;;12.20;10.40;;;14.50;99.90;;;;;;5073487;28;20460;-57
2022/10/07 05:07:53;;;;;;;11.63;10.30;;;14.50;99.90;;;;;;5070190;28;20039;-56
2022/10/07 05:10:20;;;;;;;21.63;11.43;;;14.50;99.90;;;;;;5072693;28;20028;-57
2022/10/07 05:12:45;;;;;;;14.25;11.98;;;14.60;99.90;;;;;;5072452;28;20055;-57
2022/10/07 05:15:11;;;;;;;14.52;12.02;;;14.70;99.90;;;;;;5073308;28;20028;-57
2022/10/07 05:17:39;;;;;;;12.73;11.23;;;14.70;99.90;;;;;;5073422;28;20020;-58
2022/10/07 05:20:11;;;;;;;15.18;11.80;;;14.80;99.90;;;;;;5072398;28;20044;-59
2022/10/07 05:22:37;;;;;;;16.67;11.82;;;14.80;99.90;;;;;;5053139;28;20044;-55
2022/10/07 05:25:03;;;;;;;15.68;12.95;;;14.80;99.90;;;;;;5072889;28;20050;-56
2022/10/07 05:27:28;;;;;;;15.88;12.65;;;14.90;99.90;;;;;;5071658;28;20046;-55
2022/10/07 05:29:54;;;;;;;16.50;12.82;;;15.00;99.90;;;;;;5045633;28;20059;-54
2022/10/07 05:32:20;;;;;;;14.48;12.40;;;15.00;99.90;;;;;;5066668;28;20078;-57
2022/10/07 05:34:45;;;;;;;15.27;13.07;;;15.00;99.90;;;;;;5070221;28;20044;-59
2022/10/07 05:37:11;;;;;;;15.85;12.25;;;15.00;99.90;;;;;;5069846;28;20097;-57
2022/10/07 05:39:37;;;;;;;16.38;13.48;;;15.10;99.90;;;;;;5069104;28;20032;-53
2022/10/07 05:42:03;;;;;;;15.02;13.23;;;15.10;99.90;;;;;;5070862;28;20032;-54
2022/10/07 05:44:32;;;;;;;19.15;13.18;;;15.10;99.90;;;;;;5071371;28;20082;-56
2022/10/07 05:46:58;;;;;;;16.30;11.82;;;15.10;99.90;;;;;;5072839;28;20021;-53
2022/10/07 05:49:24;;;;;;;16.52;11.63;;;15.10;99.90;;;;;;5072066;28;20040;-59
2022/10/07 05:51:52;;;;;;;16.38;12.27;;;15.00;99.90;;;;;;5035441;28;20114;-60
2022/10/07 05:54:19;;;;;;;17.73;13.07;;;14.80;99.90;;;;;;5071631;28;20043;-53
2022/10/07 05:56:45;;;;;;;22.65;13.95;;;14.50;99.90;;;;;;5052816;28;20037;-52
2022/10/07 05:59:10;;;;;;;19.10;13.82;;;14.20;99.90;;;;;;5073060;28;20031;-57
2022/10/07 06:01:36;;;;;;;20.73;13.30;;;14.40;99.90;;;;;;5069409;28;20043;-53
2022/10/07 06:04:02;;;;;;;20.50;15.40;;;14.50;99.90;;;;;;5066298;28;20032;-58
2022/10/07 06:06:29;;;;;;;18.83;13.80;;;14.60;99.90;;;;;;5072511;28;20068;-54
2022/10/07 06:13:06;;;;;;;20.42;13.35;;;14.70;99.90;;;;;;5070993;28;20115;-56
2022/10/07 06:14:24;;;;;;;19.35;13.60;;;14.70;99.90;;;;;;5072727;28;20063;-57
2022/10/07 06:16:50;;;;;;;18.98;13.43;;;14.70;99.90;;;;;;5072534;28;20474;-58
2022/10/07 06:19:21;;;;;;;15.43;12.95;;;14.70;99.90;;;;;;5072988;28;20086;-56
2022/10/07 06:21:47;;;;;;;15.53;13.57;;;14.80;99.90;;;;;;5071239;28;20120;-57
2022/10/07 06:24:13;;;;;;;18.23;14.82;;;15.10;99.90;;;;;;5068079;28;20024;-57
2022/10/07 06:26:41;;;;;;;14.98;12.60;;;15.30;99.90;;;;;;5071075;28;20051;-56
2022/10/07 06:29:07;;;;;;;18.23;14.63;;;15.40;99.90;;;;;;5020395;28;21196;-54
2022/10/07 06:31:33;;;;;;;18.92;13.52;;;15.60;99.90;;;;;;5049180;28;20119;-57
2022/10/07 06:33:59;;;;;;;25.20;14.25;;;15.80;99.90;;;;;;5072047;28;20459;-56
2022/10/07 06:36:25;;;;;;;21.08;14.50;;;15.90;99.90;;;;;;5072511;28;20112;-54
2022/10/07 06:38:53;;;;;;;20.35;13.68;;;16.10;99.90;;;;;;5071299;28;20068;-56
2022/10/07 06:41:20;;;;;;;15.80;13.52;;;16.10;99.90;;;;;;5071296;28;20026;-60
2022/10/07 06:43:46;;;;;;;23.75;13.60;;;16.30;99.90;;;;;;5070559;28;20113;-56
2022/10/07 06:46:17;;;;;;;20.35;13.65;;;16.60;99.90;;;;;;5072374;28;20028;-54
2022/10/07 06:48:45;;;;;;;25.13;14.57;;;;;;;;;;5071414;28;20048;-61
2022/10/07 06:51:15;;;;;;;23.65;14.68;;;16.90;99.90;;;;;;5071274;28;20033;-53
2022/10/07 06:53:42;;;;;;;18.02;13.45;;;17.00;99.90;;;;;;5070627;28;20362;-54
2022/10/07 06:56:10;;;;;;;22.27;14.15;;;17.20;99.90;;;;;;5072003;28;20047;-52
2022/10/07 06:58:36;;;;;;;20.65;13.57;;;17.60;99.90;;;;;;5051950;28;20044;-57
2022/10/07 07:01:02;;;;;;;19.48;13.23;;;17.80;99.90;;;;;;5072791;28;20016;-58
2022/10/07 07:03:28;;;;;;;22.13;13.85;;;18.00;99.90;;;;;;5071991;28;20036;-51
2022/10/07 07:05:55;;;;;;;19.40;13.52;;;18.10;99.90;;;;;;5071815;28;20123;-54
2022/10/07 07:08:26;;;;;;;20.63;12.65;;;18.20;99.90;;;;;;5071783;28;20388;-56
2022/10/07 07:10:52;;;;;;;17.47;13.27;;;18.40;99.90;;;;;;5067780;28;20036;-60
2022/10/07 07:13:18;;;;;;;22.95;14.05;;;18.50;99.90;;;;;;5071535;28;20049;-59
2022/10/07 07:15:54;;;;;;;23.20;13.00;;;18.70;99.90;;;;;;5070213;28;20345;-53
2022/10/07 07:18:19;;;;;;;14.95;11.45;;;19.10;99.90;;;;;;5069547;28;20484;-51
2022/10/07 07:20:46;;;;;;;18.10;12.13;;;;;;;;;;5070400;28;20169;-55
2022/10/07 07:23:11;;;;;;;14.98;12.45;;;19.50;99.90;;;;;;5070904;28;20033;-53
2022/10/07 07:25:39;;;;;;;14.48;11.88;;;19.60;99.90;;;;;;5070751;28;20032;-53
2022/10/07 07:28:06;;;;;;;14.15;11.77;;;19.50;99.90;;;;;;5070762;28;20029;-51
2022/10/07 07:30:33;;;;;;;18.48;12.15;;;19.60;99.90;;;;;;5070632;28;20081;-55
2022/10/07 07:32:59;;;;;;;18.45;11.63;;;19.80;99.90;;;;;;5069756;28;20020;-51
2022/10/07 07:35:27;;;;;;;16.27;11.55;;;19.80;99.90;;;;;;5036790;28;20056;-51
2022/10/07 07:37:54;;;;;;;14.25;11.40;;;19.90;99.90;;;;;;5071343;28;20068;-53
2022/10/07 07:40:20;;;;;;;18.92;11.27;;;20.20;99.90;;;;;;5072594;28;20499;-60
2022/10/07 07:42:47;;;;;;;14.93;11.02;;;20.40;99.90;;;;;;5073902;28;20385;-58
2022/10/07 07:45:13;;;;;;;13.25;10.20;;;20.60;99.90;;;;;;5072282;28;20039;-54
2022/10/07 07:47:39;;;;;;;16.33;10.52;;;;;;;;;;5069186;28;20437;-57
2022/10/07 07:50:06;;;;;;;17.45;12.13;;;21.10;99.90;;;;;;5073272;28;20483;-55
2022/10/07 07:52:32;;;;;;;17.48;10.75;;;21.30;99.90;;;;;;5073143;28;20063;-55
2022/10/07 07:54:58;;;;;;;15.35;10.75;;;21.40;99.90;;;;;;5064978;28;20435;-49
2022/10/07 07:57:26;;;;;;;18.75;10.32;;;21.70;99.90;;;;;;5070380;28;20040;-55
2022/10/07 07:59:52;;;;;;;16.38;10.70;;;22.20;99.90;;;;;;5066342;28;20031;-48
2022/10/07 08:02:19;;;;;;;13.52;9.48;;;22.80;99.90;;;;;;5068699;28;20025;-52
2022/10/07 08:04:45;;;;;;;19.52;11.07;;;22.70;99.90;;;;;;5065505;28;20041;-49
2022/10/07 08:07:11;;;;;;;18.10;11.13;;;23.10;99.90;;;;;;5072087;28;20035;-52
2022/10/07 08:09:38;;;;;;;20.00;10.30;;;23.50;99.90;;;;;;5073638;28;20093;-52
2022/10/07 08:12:04;;;;;;;17.10;9.68;;;;;;;;;;5070996;28;20410;-55
2022/10/07 08:14:30;;;;;;;16.17;9.90;;;24.10;99.90;;;;;;5072806;28;20028;-52
2022/10/07 08:16:58;;;;;;;12.75;9.68;;;24.10;99.90;;;;;;5074171;28;20033;-58
2022/10/07 08:19:28;;;;;;;16.25;9.82;;;24.20;99.90;;;;;;5074708;28;20478;-50
2022/10/07 08:21:54;;;;;;;16.58;9.50;;;23.80;99.90;;;;;;5074400;28;20039;-51
2022/10/07 08:24:22;;;;;;;11.95;9.05;;;23.80;99.90;;;;;;5073738;28;20029;-55
2022/10/07 08:26:49;;;;;;;14.70;10.10;;;23.70;99.90;;;;;;5071631;28;20041;-53
2022/10/07 08:29:15;;;;;;;12.70;10.02;;;23.50;99.90;;;;;;5072346;28;20086;-52
2022/10/07 08:31:41;;;;;;;11.85;9.90;;;23.60;99.90;;;;;;5056198;28;20052;-57
2022/10/07 08:34:09;;;;;;;12.10;9.50;;;23.40;99.90;;;;;;5054187;28;20044;-55
2022/10/07 08:36:35;;;;;;;16.02;11.02;;;23.40;99.90;;;;;;5072220;28;20488;-55
2022/10/07 08:39:03;;;;;;;18.02;10.18;;;23.50;99.90;;;;;;5072510;28;20021;-55
2022/10/07 08:41:44;;;;;;;11.68;9.73;;;23.50;99.90;;;;;;5072711;28;20040;-52
2022/10/07 08:44:16;;;;;;;16.38;10.70;;;23.50;99.90;;;;;;5068655;28;20472;-52
2022/10/07 08:46:54;;;;;;;;;;;23.70;99.90;;;;;;5070087;28;20049;-53
2022/10/07 08:49:46;;;;;;;17.40;9.77;;;23.90;99.90;;;;;;5054316;28;19985;-53
2022/10/07 08:52:24;;;;;;;17.15;10.18;;;24.00;99.90;;;;;;5071090;28;20040;-51
2022/10/07 08:54:50;;;;;;;12.55;9.73;;;;;;;;;;5068736;28;20068;-55
2022/10/07 08:57:29;;;;;;;13.82;10.32;;;;;;;;;;5073480;28;20047;-54
2022/10/07 08:59:57;;;;;;;12.95;10.52;;;;;;;;;;5054459;28;20491;-58
2022/10/07 09:02:37;;;;;;;13.30;9.70;;;24.10;99.90;;;;;;5072448;28;20041;-54
2022/10/07 09:05:16;;;;;;;13.50;10.20;;;;;;;;;;5068675;28;20610;-53
2022/10/07 09:07:54;;;;;;;12.18;9.90;;;24.70;99.90;;;;;;5069222;28;20036;-53
2022/10/07 09:10:30;;;;;;;12.50;10.05;;;;;;;;;;5069060;28;20379;-54
2022/10/07 09:13:10;;;;;;;11.45;10.05;;;25.40;99.90;;;;;;5071097;28;20053;-56
2022/10/07 09:15:47;;;;;;;13.18;10.02;;;25.50;99.90;;;;;;5069677;28;20037;-60
2022/10/07 09:18:22;;;;;;;12.43;9.45;;;25.70;99.90;;;;;;5036419;28;20132;-54
2022/10/07 09:20:54;;;;;;;11.93;10.20;;;26.00;99.90;;;;;;5071141;28;20388;-55
2022/10/07 09:23:28;;;;;;;12.98;9.48;;;25.50;99.90;;;;;;5051516;28;20040;-54
2022/10/07 09:25:54;;;;;;;15.65;9.60;;;;;;;;;;5068562;28;20024;-52
2022/10/07 09:28:31;;;;;;;14.13;10.20;;;26.20;99.90;;;;;;5068090;28;20071;-54
2022/10/07 09:31:01;;;;;;;12.60;9.98;;;25.10;99.90;;;;;;5073009;28;20024;-55
2022/10/07 09:33:30;;;;;;;15.20;9.40;;;25.30;99.90;;;;;;5070626;28;20033;-51
2022/10/07 09:36:10;;;;;;;13.10;9.18;;;25.30;99.90;;;;;;5067781;28;20357;-52
2022/10/07 09:38:39;;;;;;;11.88;7.95;;;25.80;99.90;;;;;;5065132;28;20033;-54
2022/10/07 09:41:34;;;;;;;9.75;7.38;;;25.60;99.90;;;;;;5085378;28;20059;-55
2022/10/07 09:44:13;;;;;;;11.90;7.38;;;25.90;99.90;;;;;;5079256;28;20039;-52
2022/10/07 09:46:51;;;;;;;8.68;7.78;;;25.80;99.90;;;;;;5081372;28;20078;-52
2022/10/07 09:49:38;;;;;;;9.55;8.23;;;25.30;99.90;;;;;;5081454;28;20058;-57
2022/10/07 09:52:04;;;;;;;16.58;8.30;;;25.80;99.90;;;;;;5082368;28;20482;-63
2022/10/07 09:54:32;;;;;;;12.45;7.93;;;26.20;99.90;;;;;;5089289;28;20127;-55
2022/10/07 09:57:02;;;;;;;9.43;7.78;;;26.50;99.90;;;;;;5081098;28;20032;-53
2022/10/07 09:59:33;;;;;;;11.55;7.57;;;26.10;99.50;;;;;;5088426;28;20054;-54
2022/10/07 10:02:13;;;;;;;7.72;6.50;;;25.10;98.90;;;;;;5080722;28;20036;-53
2022/10/07 10:04:52;;;;;;;11.13;7.38;;;25.40;99.90;;;;;;5079694;28;20050;-53
2022/10/07 10:07:37;;;;;;;18.73;8.48;;;25.80;99.70;;;;;;5087357;28;20077;-56
2022/10/07 10:10:15;;;;;;;8.43;6.80;;;26.00;99.80;;;;;;5085516;28;20063;-53
2022/10/07 10:12:46;;;;;;;9.50;7.00;;;25.20;98.30;;;;;;5003941;28;20446;-52
2022/10/07 10:15:42;;;;;;;8.93;7.60;;;25.70;99.50;;;;;;5070256;28;20036;-60
2022/10/07 10:18:30;;;;;;;8.48;7.22;;;25.40;99.00;;;;;;5067334;28;20033;-57
2022/10/07 10:21:18;;;;;;;10.88;7.65;;;25.80;99.30;;;;;;5071661;28;20024;-52
2022/10/07 10:24:00;;;;;;;10.45;7.95;;;25.40;99.30;;;;;;5068682;28;20032;-60
2022/10/07 10:27:10;;;;;;;8.35;6.82;;;25.80;99.90;;;;;;5070405;28;20033;-57
2022/10/07 10:29:50;;;;;;;9.73;6.35;;;26.00;98.80;;;;;;4991384;28;20622;-57
2022/10/07 10:32:22;;;;;;;8.50;6.78;;;26.00;98.20;;;;;;4990433;28;20042;-57
2022/10/07 10:34:53;;;;;;;9.52;6.43;;;26.10;98.00;;;;;;5009568;28;20034;-57
2022/10/07 10:37:29;;;;;;;8.82;6.60;;;26.30;98.40;;;;;;5009024;28;20122;-56
2022/10/07 10:40:06;;;;;;;9.55;7.40;;;26.20;97.90;;;;;;5008685;28;20049;-58
2022/10/07 10:42:46;;;;;;;10.65;7.88;;;26.10;98.90;;;;;;5009933;28;20089;-57
2022/10/07 10:45:31;;;;;;;10.75;7.75;;;25.70;98.40;;;;;;5008685;28;20049;-55
2022/10/07 10:48:27;;;;;;;13.65;8.68;;;25.30;98.50;;;;;;5010152;28;20064;-55
2022/10/07 10:51:12;;;;;;;10.02;7.63;;;25.30;98.30;;;;;;5007366;28;20050;-55
2022/10/07 10:53:50;;;;;;;11.88;7.97;;;25.30;98.10;;;;;;5009990;28;20029;-55
2022/10/07 10:56:43;;;;;;;11.57;8.43;;;25.30;98.90;;;;;;5009377;28;20093;-54
2022/10/07 10:59:14;;;;;;;9.63;7.65;;;24.80;99.90;;;;;;5004782;28;20030;-57
2022/10/07 11:01:43;;;;;;;8.82;7.88;;;24.60;99.40;;;;;;5009525;28;20038;-59
2022/10/07 11:04:21;;;;;;;10.35;7.88;;;24.70;99.90;;;;;;5053886;28;20146;-56
2022/10/07 11:07:01;;;;;;;11.27;7.05;;;24.80;99.40;;;;;;5072187;28;20025;-54
2022/10/07 11:09:41;;;;;;;9.43;7.50;;;24.30;99.80;;;;;;5070725;28;20460;-55
2022/10/07 11:12:21;;;;;;;11.93;7.55;;;24.00;99.50;;;;;;5069558;28;20515;-54
2022/10/07 11:14:52;;;;;;;12.63;7.28;;;24.00;99.80;;;;;;5074957;28;20453;-57
2022/10/07 11:17:23;;;;;;;7.95;7.15;;;23.90;99.80;;;;;;5056003;28;20484;-57
2022/10/07 11:20:10;;;;;;;9.32;7.05;;;23.80;99.80;;;;;;5073518;28;20380;-56
2022/10/07 11:22:41;;;;;;;8.93;7.45;;;23.60;99.50;;;;;;5073891;28;20070;-54
2022/10/07 11:25:42;;;;;;;10.27;7.83;;;23.80;99.90;;;;;;5072746;28;20064;-56
2022/10/07 11:28:18;;;;;;;10.02;6.55;;;23.70;99.90;;;;;;5074234;28;20372;-53
2022/10/07 11:30:50;;;;;;;11.20;6.45;;;;;;;;;;5069751;28;20096;-59
2022/10/07 11:33:34;;;;;;;8.05;6.13;;;23.40;99.70;;;;;;5073004;28;20040;-59
2022/10/07 11:36:13;;;;;;;11.32;6.72;;;23.60;99.90;;;;;;5070192;28;20111;-54
2022/10/07 11:38:40;;;;;;;8.07;6.68;;;23.50;99.90;;;;;;5074893;28;20043;-55
2022/10/07 11:41:23;;;;;;;10.40;7.28;;;23.40;99.40;;;;;;5071244;28;20444;-59
2022/10/07 11:43:57;;;;;;;13.00;6.80;;;22.90;99.70;;;;;;5071790;28;20354;-58
2022/10/07 11:46:25;;;;;;;7.05;5.95;;;23.20;99.90;;;;;;5069988;28;20035;-55
2022/10/07 11:49:03;;;;;;;10.00;6.10;;;23.30;99.30;;;;;;5071862;28;20034;-60
2022/10/07 13:00:02;;;;;;;9.10;6.80;;;21.50;99.90;;;;;;5037380;28;20176;-58
2022/10/07 13:02:51;;;;;;;11.55;7.55;;;21.40;99.90;;;;;;5039897;28;20045;-54
2022/10/07 13:05:54;;;;;;;11.15;6.30;;;21.40;99.90;;;;;;5050333;28;20034;-53
2022/10/07 13:08:41;;;;;;;12.75;6.13;;;21.40;99.90;;;;;;5049591;28;20037;-58
2022/10/07 13:11:26;;;;;;;6.55;5.22;;;;;;;;;;5051029;28;20472;-54
2022/10/07 13:14:33;;;;;;;8.13;5.05;;;21.40;99.90;;;;;;5051185;28;20539;-55
2022/10/07 13:17:14;;;;;;;10.98;5.05;;;21.40;99.90;;;;;;4983549;28;20034;-55
2022/10/07 13:19:55;;;;;;;6.97;5.13;;;21.50;99.90;;;;;;5025896;28;20038;-58
2022/10/07 13:22:23;;;;;;;7.53;5.07;;;21.50;99.90;;;;;;5013079;28;20038;-54
2022/10/07 13:24:52;;;;;;;8.02;5.25;;;21.60;99.90;;;;;;5024897;28;20488;-57
2022/10/07 13:27:24;;;;;;;9.15;6.05;;;21.70;99.90;;;;;;5022108;28;20111;-57
2022/10/07 13:29:50;;;;;;;8.50;5.80;;;21.80;99.90;;;;;;5025780;28;20574;-54
2022/10/07 13:32:26;;;;;;;7.18;5.13;;;21.80;99.90;;;;;;5022389;28;20065;-59
2022/10/07 13:34:53;;;;;;;10.38;6.13;;;21.90;99.90;;;;;;5026553;28;21486;-59
2022/10/07 13:37:29;;;;;;;7.85;4.85;;;21.80;99.90;;;;;;5026915;28;20026;-53
2022/10/07 13:40:16;;;;;;;8.45;5.07;;;21.60;99.90;;;;;;4996096;28;20052;-58
2022/10/07 13:42:51;;;;;;;7.30;5.38;;;21.60;99.90;;;;;;5027033;28;20392;-58
2022/10/07 13:45:16;;;;;;;7.55;5.45;;;21.50;99.90;;;;;;5025588;28;20470;-59
2022/10/07 13:47:45;;;;;;;10.52;6.03;;;21.70;99.90;;;;;;5027001;28;20040;-57
2022/10/07 13:50:32;;;;;;;14.20;6.72;;;21.70;99.90;;;;;;5021519;28;20512;-54
2022/10/07 13:52:59;;;;;;;10.30;6.30;;;21.80;99.90;;;;;;4988571;28;20032;-56
2022/10/07 13:55:28;;;;;;;9.93;6.25;;;21.80;99.90;;;;;;5051052;28;20039;-57
2022/10/07 13:57:56;;;;;;;11.27;8.05;;;21.50;99.90;;;;;;5042300;28;21503;-55
2022/10/07 14:00:26;;;;;;;10.65;7.30;;;21.60;99.90;;;;;;5045261;28;20062;-54
2022/10/07 14:02:52;;;;;;;12.30;6.80;;;21.70;99.90;;;;;;5044398;28;20025;-54
2022/10/07 14:05:28;;;;;;;9.65;6.32;;;21.70;99.90;;;;;;5049047;28;20099;-52
2022/10/07 14:07:56;;;;;;;9.70;6.80;;;21.70;99.90;;;;;;5048579;28;20031;-58
2022/10/07 14:10:25;;;;;;;14.43;7.60;;;21.70;99.90;;;;;;5049551;28;20041;-58
2022/10/07 14:12:58;;;;;;;13.88;7.30;;;21.70;99.90;;;;;;5049664;28;20065;-58
2022/10/07 14:15:30;;;;;;;7.80;5.80;;;21.60;99.90;;;;;;5049309;28;20047;-54
2022/10/07 14:17:58;;;;;;;13.93;8.52;;;21.50;99.90;;;;;;5050318;28;20469;-55
2022/10/07 14:20:33;;;;;;;16.20;8.02;;;21.40;99.90;;;;;;5048421;28;21225;-56
2022/10/07 14:23:15;;;;;;;15.73;8.93;;;21.50;99.90;;;;;;5044781;28;20029;-55
2022/10/07 14:25:53;;;;;;;20.10;9.20;;;21.50;99.90;;;;;;5045223;28;20037;-53
2022/10/07 14:28:26;;;;;;;20.15;9.75;;;21.40;99.90;;;;;;5049291;28;20484;-48
2022/10/07 14:37:07;;;;;;;16.13;8.18;;;21.10;99.90;;;;;;5046919;28;20064;-53
2022/10/07 14:39:46;;;;;;;14.60;8.35;;;;;;;;;;5047863;28;20041;-56
2022/10/07 14:42:20;;;;;;;16.17;8.70;;;20.80;99.90;;;;;;5047232;28;20025;-50
2022/10/07 14:44:46;;;;;;;13.98;8.73;;;20.70;99.90;;;;;;5034509;28;20060;-53
2022/10/07 14:47:21;;;;;;;11.75;8.77;;;20.70;99.90;;;;;;5045297;28;20151;-51
2022/10/07 14:49:47;;;;;;;14.95;9.77;;;20.60;99.90;;;;;;5042876;28;20041;-56
2022/10/07 14:52:30;;;;;;;16.02;8.77;;;20.60;99.90;;;;;;5038998;28;20422;-55
2022/10/07 14:54:58;;;;;;;14.32;8.82;;;20.50;99.90;;;;;;5035886;28;20123;-55
2022/10/07 14:57:25;;;;;;;13.07;10.02;;;20.40;99.90;;;;;;5042918;28;20161;-56
2022/10/07 14:59:51;;;;;;;17.10;9.50;;;20.40;99.90;;;;;;5042953;28;20043;-55
2022/10/07 15:02:17;;;;;;;12.50;8.88;;;20.40;99.90;;;;;;5048611;28;20098;-57
2022/10/07 15:04:44;;;;;;;18.70;9.60;;;20.30;99.90;;;;;;5043459;28;20044;-54
2022/10/07 15:07:13;;;;;;;15.07;9.63;;;20.30;99.90;;;;;;5046040;28;20124;-54
2022/10/07 15:09:40;;;;;;;17.33;9.48;;;20.20;99.90;;;;;;5047570;28;20503;-58
2022/10/07 15:12:06;;;;;;;14.35;9.35;;;20.20;99.90;;;;;;5043910;28;20037;-55
2022/10/07 15:14:32;;;;;;;14.40;9.90;;;20.10;99.90;;;;;;5044410;28;20041;-53
2022/10/07 15:16:58;;;;;;;20.30;9.85;;;20.20;99.90;;;;;;5012422;28;20038;-54
2022/10/07 15:19:25;;;;;;;22.83;10.88;;;20.30;99.90;;;;;;5012836;28;20501;-53
2022/10/07 15:21:51;;;;;;;21.05;10.77;;;20.30;99.90;;;;;;5012309;28;20041;-54
2022/10/07 15:24:18;;;;;;;14.32;11.20;;;20.30;99.90;;;;;;5012849;28;20040;-53
2022/10/07 15:26:45;;;;;;;29.38;11.80;;;20.20;99.90;;;;;;5011932;28;20046;-55